sensor_id;sensor_type;location;lat;lon;timestamp;temperature;humidity
3005;DHT22;1512;51.486;6.610;2023-09-18T00:02:57;19.50;99.90
3005;DHT22;1512;51.486;6.610;2023-09-18T00:07:06;19.50;99.90
3005;DHT22;1512;51.486;6.610;2023-09-18T00:11:14;19.50;99.90
3005;DHT22;1512;51.486;6.610;2023-09-18T00:15:23;19.50;1.00
3005;DHT22;1512;51.486;6.610;2023-09-18T00:19:32;19.50;1.00
3005;DHT22;1512;51.486;6.610;2023-09-18T00:23:41;19.50;1.00
3005;DHT22;1512;51.486;6.610;2023-09-18T00:27:50;19.50;1.00
3005;DHT22;1512;51.486;6.610;2023-09-18T00:31:59;19.50;1.00
3005;DHT22;1512;51.486;6.610;2023-09-18T00:36:08;19.50;1.00
3005;DHT22;1512;51.486;6.610;2023-09-18T00:40:19;19.40;1.00
3005;DHT22;1512;51.486;6.610;2023-09-18T00:44:27;19.40;1.00
3005;DHT22;1512;51.486;6.610;2023-09-18T00:48:36;19.40;1.00
3005;DHT22;1512;51.486;6.610;2023-09-18T00:52:45;19.40;1.00
3005;DHT22;1512;51.486;6.610;2023-09-18T00:56:53;19.40;1.00
3005;DHT22;1512;51.486;6.610;2023-09-18T01:01:04;19.40;1.00
3005;DHT22;1512;51.486;6.610;2023-09-18T01:05:13;19.40;1.00
3005;DHT22;1512;51.486;6.610;2023-09-18T01:09:23;19.40;1.00
3005;DHT22;1512;51.486;6.610;2023-09-18T01:13:49;19.40;1.00
3005;DHT22;1512;51.486;6.610;2023-09-18T01:17:56;19.40;1.00
3005;DHT22;1512;51.486;6.610;2023-09-18T01:22:09;19.40;1.00
3005;DHT22;1512;51.486;6.610;2023-09-18T01:26:18;19.40;1.00
3005;DHT22;1512;51.486;6.610;2023-09-18T01:30:27;19.30;1.00
3005;DHT22;1512;51.486;6.610;2023-09-18T01:34:47;19.30;1.00
3005;DHT22;1512;51.486;6.610;2023-09-18T01:38:55;19.30;1.00
3005;DHT22;1512;51.486;6.610;2023-09-18T01:43:05;19.30;1.00
3005;DHT22;1512;51.486;6.610;2023-09-18T01:47:16;19.20;1.00
3005;DHT22;1512;51.486;6.610;2023-09-18T01:51:26;19.20;1.00
3005;DHT22;1512;51.486;6.610;2023-09-18T01:55:34;19.20;1.00
3005;DHT22;1512;51.486;6.610;2023-09-18T01:59:43;19.20;1.00
3005;DHT22;1512;51.486;6.610;2023-09-18T02:03:53;19.20;1.00
3005;DHT22;1512;51.486;6.610;2023-09-18T02:08:04;19.20;1.00
3005;DHT22;1512;51.486;6.610;2023-09-18T02:12:12;19.20;1.00
3005;DHT22;1512;51.486;6.610;2023-09-18T02:16:23;19.20;1.00
3005;DHT22;1512;51.486;6.610;2023-09-18T02:20:37;19.20;1.00
3005;DHT22;1512;51.486;6.610;2023-09-18T02:24:42;19.20;16.10
3005;DHT22;1512;51.486;6.610;2023-09-18T02:28:52;19.30;38.00
3005;DHT22;1512;51.486;6.610;2023-09-18T02:33:02;19.30;25.80
3005;DHT22;1512;51.486;6.610;2023-09-18T02:37:13;19.30;27.10
3005;DHT22;1512;51.486;6.610;2023-09-18T02:41:22;19.40;13.30
3005;DHT22;1512;51.486;6.610;2023-09-18T02:45:30;19.40;1.00
3005;DHT22;1512;51.486;6.610;2023-09-18T02:49:39;19.40;1.00
3005;DHT22;1512;51.486;6.610;2023-09-18T02:53:48;19.40;1.00
3005;DHT22;1512;51.486;6.610;2023-09-18T02:57:57;19.40;1.00
3005;DHT22;1512;51.486;6.610;2023-09-18T03:02:06;19.40;1.00
3005;DHT22;1512;51.486;6.610;2023-09-18T03:06:15;19.40;1.00
3005;DHT22;1512;51.486;6.610;2023-09-18T03:10:24;19.40;1.00
3005;DHT22;1512;51.486;6.610;2023-09-18T03:14:32;19.40;27.30
3005;DHT22;1512;51.486;6.610;2023-09-18T03:18:42;19.40;44.30
3005;DHT22;1512;51.486;6.610;2023-09-18T03:23:01;19.40;57.10
3005;DHT22;1512;51.486;6.610;2023-09-18T03:27:10;19.40;1.00
3005;DHT22;1512;51.486;6.610;2023-09-18T03:31:18;19.50;1.00
3005;DHT22;1512;51.486;6.610;2023-09-18T03:35:30;19.50;1.00
3005;DHT22;1512;51.486;6.610;2023-09-18T03:39:40;19.60;1.00
3005;DHT22;1512;51.486;6.610;2023-09-18T03:43:48;19.60;1.00
3005;DHT22;1512;51.486;6.610;2023-09-18T03:47:57;19.70;1.00
3005;DHT22;1512;51.486;6.610;2023-09-18T03:52:05;19.80;40.10
3005;DHT22;1512;51.486;6.610;2023-09-18T03:56:14;19.80;1.00
3005;DHT22;1512;51.486;6.610;2023-09-18T04:00:23;20.00;1.00
3005;DHT22;1512;51.486;6.610;2023-09-18T04:04:32;20.20;1.00
3005;DHT22;1512;51.486;6.610;2023-09-18T04:08:40;20.10;99.90
3005;DHT22;1512;51.486;6.610;2023-09-18T04:12:52;20.10;99.90
3005;DHT22;1512;51.486;6.610;2023-09-18T04:17:01;20.00;99.90
3005;DHT22;1512;51.486;6.610;2023-09-18T04:21:09;19.90;1.00
3005;DHT22;1512;51.486;6.610;2023-09-18T04:25:18;19.90;99.90
3005;DHT22;1512;51.486;6.610;2023-09-18T04:29:27;19.90;1.00
3005;DHT22;1512;51.486;6.610;2023-09-18T04:33:36;19.90;1.00
3005;DHT22;1512;51.486;6.610;2023-09-18T04:37:45;19.80;1.00
3005;DHT22;1512;51.486;6.610;2023-09-18T04:41:53;19.80;1.00
3005;DHT22;1512;51.486;6.610;2023-09-18T04:46:02;19.80;1.00
3005;DHT22;1512;51.486;6.610;2023-09-18T04:50:14;19.80;1.00
3005;DHT22;1512;51.486;6.610;2023-09-18T04:54:24;19.70;1.00
3005;DHT22;1512;51.486;6.610;2023-09-18T04:58:33;19.70;1.00
3005;DHT22;1512;51.486;6.610;2023-09-18T05:02:43;19.70;1.00
3005;DHT22;1512;51.486;6.610;2023-09-18T05:06:52;19.70;1.00
3005;DHT22;1512;51.486;6.610;2023-09-18T05:11:01;19.70;1.00
3005;DHT22;1512;51.486;6.610;2023-09-18T05:15:10;19.70;1.00
3005;DHT22;1512;51.486;6.610;2023-09-18T05:19:20;19.70;1.00
3005;DHT22;1512;51.486;6.610;2023-09-18T05:23:30;19.60;1.00
3005;DHT22;1512;51.486;6.610;2023-09-18T05:27:39;19.60;1.00
3005;DHT22;1512;51.486;6.610;2023-09-18T05:31:49;19.50;1.00
3005;DHT22;1512;51.486;6.610;2023-09-18T05:35:58;19.50;1.00
3005;DHT22;1512;51.486;6.610;2023-09-18T05:40:08;19.50;1.00
3005;DHT22;1512;51.486;6.610;2023-09-18T05:44:17;19.60;1.00
3005;DHT22;1512;51.486;6.610;2023-09-18T05:48:25;19.60;1.00
3005;DHT22;1512;51.486;6.610;2023-09-18T05:52:34;19.50;1.00
3005;DHT22;1512;51.486;6.610;2023-09-18T05:56:43;19.50;1.00
3005;DHT22;1512;51.486;6.610;2023-09-18T06:00:52;19.50;1.00
3005;DHT22;1512;51.486;6.610;2023-09-18T06:05:01;19.60;99.90
3005;DHT22;1512;51.486;6.610;2023-09-18T06:09:11;19.60;99.90
3005;DHT22;1512;51.486;6.610;2023-09-18T06:13:20;19.60;1.00
3005;DHT22;1512;51.486;6.610;2023-09-18T06:17:29;19.70;1.00
3005;DHT22;1512;51.486;6.610;2023-09-18T06:21:38;19.70;1.00
3005;DHT22;1512;51.486;6.610;2023-09-18T06:25:47;19.70;99.90
3005;DHT22;1512;51.486;6.610;2023-09-18T06:30:00;19.60;1.00
3005;DHT22;1512;51.486;6.610;2023-09-18T06:34:08;19.70;99.90
3005;DHT22;1512;51.486;6.610;2023-09-18T06:38:17;19.70;99.90
3005;DHT22;1512;51.486;6.610;2023-09-18T06:42:26;19.80;1.00
3005;DHT22;1512;51.486;6.610;2023-09-18T06:46:34;19.80;1.00
3005;DHT22;1512;51.486;6.610;2023-09-18T06:50:43;19.80;1.00
3005;DHT22;1512;51.486;6.610;2023-09-18T06:54:52;19.90;1.00
3005;DHT22;1512;51.486;6.610;2023-09-18T06:59:01;19.90;1.00
3005;DHT22;1512;51.486;6.610;2023-09-18T07:03:09;20.00;99.90
3005;DHT22;1512;51.486;6.610;2023-09-18T07:07:19;20.00;1.00
3005;DHT22;1512;51.486;6.610;2023-09-18T07:11:29;20.00;1.00
3005;DHT22;1512;51.486;6.610;2023-09-18T07:15:38;20.10;99.90
3005;DHT22;1512;51.486;6.610;2023-09-18T07:19:47;20.10;1.00
3005;DHT22;1512;51.486;6.610;2023-09-18T07:23:55;20.20;1.00
3005;DHT22;1512;51.486;6.610;2023-09-18T07:28:07;20.20;99.90
3005;DHT22;1512;51.486;6.610;2023-09-18T07:32:16;20.20;25.90
3005;DHT22;1512;51.486;6.610;2023-09-18T07:36:26;20.20;38.00
3005;DHT22;1512;51.486;6.610;2023-09-18T07:40:35;20.30;99.90
3005;DHT22;1512;51.486;6.610;2023-09-18T07:44:44;20.30;22.20
3005;DHT22;1512;51.486;6.610;2023-09-18T07:48:52;20.40;1.00
3005;DHT22;1512;51.486;6.610;2023-09-18T07:53:04;20.40;1.00
3005;DHT22;1512;51.486;6.610;2023-09-18T07:57:13;20.40;1.00
3005;DHT22;1512;51.486;6.610;2023-09-18T08:01:22;20.40;99.90
3005;DHT22;1512;51.486;6.610;2023-09-18T08:05:32;20.50;99.90
3005;DHT22;1512;51.486;6.610;2023-09-18T08:09:41;20.50;99.90
3005;DHT22;1512;51.486;6.610;2023-09-18T08:13:50;20.60;99.90
3005;DHT22;1512;51.486;6.610;2023-09-18T08:17:58;20.60;99.90
3005;DHT22;1512;51.486;6.610;2023-09-18T08:22:08;20.60;99.90
3005;DHT22;1512;51.486;6.610;2023-09-18T08:26:17;20.70;49.90
3005;DHT22;1512;51.486;6.610;2023-09-18T08:30:26;20.70;99.90
3005;DHT22;1512;51.486;6.610;2023-09-18T08:34:35;20.80;92.80
3005;DHT22;1512;51.486;6.610;2023-09-18T08:38:44;20.90;1.00
3005;DHT22;1512;51.486;6.610;2023-09-18T08:47:23;21.00;1.00
3005;DHT22;1512;51.486;6.610;2023-09-18T08:51:33;21.00;1.00
3005;DHT22;1512;51.486;6.610;2023-09-18T08:55:41;21.00;1.00
3005;DHT22;1512;51.486;6.610;2023-09-18T08:59:51;21.10;1.00
3005;DHT22;1512;51.486;6.610;2023-09-18T09:04:01;21.10;1.00
3005;DHT22;1512;51.486;6.610;2023-09-18T09:08:09;21.20;1.00
3005;DHT22;1512;51.486;6.610;2023-09-18T09:12:51;21.20;1.00
3005;DHT22;1512;51.486;6.610;2023-09-18T09:16:59;21.20;1.00
3005;DHT22;1512;51.486;6.610;2023-09-18T09:21:08;21.20;1.00
3005;DHT22;1512;51.486;6.610;2023-09-18T09:29:32;21.30;1.00
3005;DHT22;1512;51.486;6.610;2023-09-18T09:33:49;21.30;1.00
3005;DHT22;1512;51.486;6.610;2023-09-18T09:37:58;21.40;1.00
3005;DHT22;1512;51.486;6.610;2023-09-18T09:42:08;21.40;1.00
3005;DHT22;1512;51.486;6.610;2023-09-18T09:46:19;21.50;1.00
3005;DHT22;1512;51.486;6.610;2023-09-18T09:50:29;21.60;1.00
3005;DHT22;1512;51.486;6.610;2023-09-18T09:54:39;21.60;1.00
3005;DHT22;1512;51.486;6.610;2023-09-18T09:59:02;21.70;1.00
3005;DHT22;1512;51.486;6.610;2023-09-18T10:03:15;21.70;1.00
3005;DHT22;1512;51.486;6.610;2023-09-18T10:07:24;21.70;1.00
3005;DHT22;1512;51.486;6.610;2023-09-18T10:11:34;21.80;1.00
3005;DHT22;1512;51.486;6.610;2023-09-18T10:15:44;21.90;1.00
3005;DHT22;1512;51.486;6.610;2023-09-18T10:20:07;22.10;1.00
3005;DHT22;1512;51.486;6.610;2023-09-18T10:24:22;22.30;1.00
3005;DHT22;1512;51.486;6.610;2023-09-18T10:28:33;22.50;1.00
3005;DHT22;1512;51.486;6.610;2023-09-18T10:32:44;22.60;1.00
3005;DHT22;1512;51.486;6.610;2023-09-18T10:36:56;22.80;1.00
3005;DHT22;1512;51.486;6.610;2023-09-18T10:41:05;22.70;1.00
3005;DHT22;1512;51.486;6.610;2023-09-18T10:45:16;22.60;1.00
3005;DHT22;1512;51.486;6.610;2023-09-18T10:49:25;22.70;1.00
3005;DHT22;1512;51.486;6.610;2023-09-18T10:53:34;22.80;1.00
3005;DHT22;1512;51.486;6.610;2023-09-18T10:57:59;22.80;1.00
3005;DHT22;1512;51.486;6.610;2023-09-18T11:02:08;23.00;1.00
3005;DHT22;1512;51.486;6.610;2023-09-18T11:06:17;23.30;1.00
3005;DHT22;1512;51.486;6.610;2023-09-18T11:10:27;23.40;1.00
3005;DHT22;1512;51.486;6.610;2023-09-18T11:19:07;23.30;1.00
3005;DHT22;1512;51.486;6.610;2023-09-18T11:23:17;23.50;1.00
3005;DHT22;1512;51.486;6.610;2023-09-18T11:27:40;23.50;1.00
3005;DHT22;1512;51.486;6.610;2023-09-18T11:31:46;23.50;1.00
3005;DHT22;1512;51.486;6.610;2023-09-18T11:35:52;23.70;1.00
3005;DHT22;1512;51.486;6.610;2023-09-18T11:40:01;23.90;1.00
3005;DHT22;1512;51.486;6.610;2023-09-18T11:48:26;24.20;1.00
3005;DHT22;1512;51.486;6.610;2023-09-18T11:52:40;24.30;1.00
3005;DHT22;1512;51.486;6.610;2023-09-18T11:56:50;24.30;1.00
3005;DHT22;1512;51.486;6.610;2023-09-18T12:01:00;24.40;1.00
3005;DHT22;1512;51.486;6.610;2023-09-18T12:05:14;24.50;1.00
3005;DHT22;1512;51.486;6.610;2023-09-18T12:09:21;24.40;1.00
3005;DHT22;1512;51.486;6.610;2023-09-18T12:13:32;24.30;1.00
3005;DHT22;1512;51.486;6.610;2023-09-18T12:17:41;24.30;1.00
3005;DHT22;1512;51.486;6.610;2023-09-18T12:21:50;24.40;1.00
3005;DHT22;1512;51.486;6.610;2023-09-18T12:26:00;24.60;1.00
3005;DHT22;1512;51.486;6.610;2023-09-18T12:30:10;24.80;1.00
3005;DHT22;1512;51.486;6.610;2023-09-18T12:34:20;24.90;1.00
3005;DHT22;1512;51.486;6.610;2023-09-18T12:38:32;24.90;1.00
3005;DHT22;1512;51.486;6.610;2023-09-18T12:42:41;25.00;1.00
3005;DHT22;1512;51.486;6.610;2023-09-18T12:46:50;25.00;1.00
3005;DHT22;1512;51.486;6.610;2023-09-18T12:51:03;25.20;1.00
3005;DHT22;1512;51.486;6.610;2023-09-18T12:55:26;25.10;1.00
3005;DHT22;1512;51.486;6.610;2023-09-18T12:59:36;25.10;1.00
3005;DHT22;1512;51.486;6.610;2023-09-18T13:03:46;25.00;1.00
3005;DHT22;1512;51.486;6.610;2023-09-18T13:07:55;24.70;1.00
3005;DHT22;1512;51.486;6.610;2023-09-18T13:12:05;24.40;1.00
3005;DHT22;1512;51.486;6.610;2023-09-18T13:16:14;24.10;1.00
3005;DHT22;1512;51.486;6.610;2023-09-18T13:20:27;24.00;1.00
3005;DHT22;1512;51.486;6.610;2023-09-18T13:24:39;24.00;1.00
3005;DHT22;1512;51.486;6.610;2023-09-18T13:28:49;24.20;1.00
3005;DHT22;1512;51.486;6.610;2023-09-18T13:33:08;24.40;1.00
3005;DHT22;1512;51.486;6.610;2023-09-18T13:37:17;24.70;1.00
3005;DHT22;1512;51.486;6.610;2023-09-18T13:41:28;24.80;1.00
3005;DHT22;1512;51.486;6.610;2023-09-18T13:45:36;24.90;1.00
3005;DHT22;1512;51.486;6.610;2023-09-18T13:49:45;24.90;1.00
3005;DHT22;1512;51.486;6.610;2023-09-18T13:53:54;25.10;1.00
3005;DHT22;1512;51.486;6.610;2023-09-18T13:58:04;24.90;1.00
3005;DHT22;1512;51.486;6.610;2023-09-18T14:02:14;24.60;99.90
3005;DHT22;1512;51.486;6.610;2023-09-18T14:06:22;24.60;1.00
3005;DHT22;1512;51.486;6.610;2023-09-18T14:10:32;24.70;1.00
3005;DHT22;1512;51.486;6.610;2023-09-18T14:14:42;24.80;1.00
3005;DHT22;1512;51.486;6.610;2023-09-18T14:18:51;24.80;1.00
3005;DHT22;1512;51.486;6.610;2023-09-18T14:23:01;24.80;1.00
3005;DHT22;1512;51.486;6.610;2023-09-18T14:27:11;24.90;99.90
3005;DHT22;1512;51.486;6.610;2023-09-18T14:31:20;24.90;1.00
3005;DHT22;1512;51.486;6.610;2023-09-18T14:35:29;24.90;99.90
3005;DHT22;1512;51.486;6.610;2023-09-18T14:39:38;24.90;99.90
3005;DHT22;1512;51.486;6.610;2023-09-18T14:43:46;25.00;99.90
3005;DHT22;1512;51.486;6.610;2023-09-18T14:47:55;25.00;99.90
3005;DHT22;1512;51.486;6.610;2023-09-18T14:52:04;24.90;99.90
3005;DHT22;1512;51.486;6.610;2023-09-18T14:56:13;24.90;99.90
3005;DHT22;1512;51.486;6.610;2023-09-18T15:00:21;24.90;99.90
3005;DHT22;1512;51.486;6.610;2023-09-18T15:04:32;24.70;99.90
3005;DHT22;1512;51.486;6.610;2023-09-18T15:08:41;24.60;99.90
3005;DHT22;1512;51.486;6.610;2023-09-18T15:13:09;24.60;99.90
3005;DHT22;1512;51.486;6.610;2023-09-18T15:17:18;24.50;99.90
3005;DHT22;1512;51.486;6.610;2023-09-18T15:21:26;24.50;99.90
3005;DHT22;1512;51.486;6.610;2023-09-18T15:25:35;24.50;99.90
3005;DHT22;1512;51.486;6.610;2023-09-18T15:29:45;24.50;99.90
3005;DHT22;1512;51.486;6.610;2023-09-18T15:33:54;24.60;99.90
3005;DHT22;1512;51.486;6.610;2023-09-18T15:38:03;24.50;99.90
3005;DHT22;1512;51.486;6.610;2023-09-18T15:42:14;24.40;99.90
3005;DHT22;1512;51.486;6.610;2023-09-18T15:46:23;24.40;99.90
3005;DHT22;1512;51.486;6.610;2023-09-18T15:50:32;24.40;99.90
3005;DHT22;1512;51.486;6.610;2023-09-18T15:54:42;24.30;99.90
3005;DHT22;1512;51.486;6.610;2023-09-18T15:58:51;24.20;99.90
3005;DHT22;1512;51.486;6.610;2023-09-18T16:03:00;24.10;99.90
3005;DHT22;1512;51.486;6.610;2023-09-18T16:07:09;24.00;99.90
3005;DHT22;1512;51.486;6.610;2023-09-18T16:11:19;24.00;99.90
3005;DHT22;1512;51.486;6.610;2023-09-18T16:15:28;23.90;99.90
3005;DHT22;1512;51.486;6.610;2023-09-18T16:19:37;23.90;99.90
3005;DHT22;1512;51.486;6.610;2023-09-18T16:23:46;23.80;99.90
3005;DHT22;1512;51.486;6.610;2023-09-18T16:27:55;23.70;99.90
3005;DHT22;1512;51.486;6.610;2023-09-18T16:32:03;23.50;99.90
3005;DHT22;1512;51.486;6.610;2023-09-18T16:36:13;23.40;99.90
3005;DHT22;1512;51.486;6.610;2023-09-18T16:40:22;23.30;99.90
3005;DHT22;1512;51.486;6.610;2023-09-18T16:44:31;23.10;99.90
3005;DHT22;1512;51.486;6.610;2023-09-18T16:48:39;23.00;99.90
3005;DHT22;1512;51.486;6.610;2023-09-18T16:52:48;22.90;99.90
3005;DHT22;1512;51.486;6.610;2023-09-18T16:56:57;22.90;99.90
3005;DHT22;1512;51.486;6.610;2023-09-18T17:01:06;22.80;99.90
3005;DHT22;1512;51.486;6.610;2023-09-18T17:05:15;22.70;99.90
3005;DHT22;1512;51.486;6.610;2023-09-18T17:09:24;22.70;99.90
3005;DHT22;1512;51.486;6.610;2023-09-18T17:13:32;22.60;99.90
3005;DHT22;1512;51.486;6.610;2023-09-18T17:17:41;22.60;99.90
3005;DHT22;1512;51.486;6.610;2023-09-18T17:21:50;22.60;99.90
3005;DHT22;1512;51.486;6.610;2023-09-18T17:25:58;22.10;99.90
3005;DHT22;1512;51.486;6.610;2023-09-18T17:30:09;21.00;1.00
3005;DHT22;1512;51.486;6.610;2023-09-18T17:34:18;20.10;1.00
3005;DHT22;1512;51.486;6.610;2023-09-18T17:38:26;19.60;1.00
3005;DHT22;1512;51.486;6.610;2023-09-18T17:42:35;19.50;1.00
3005;DHT22;1512;51.486;6.610;2023-09-18T17:46:45;19.40;1.00
3005;DHT22;1512;51.486;6.610;2023-09-18T17:50:54;19.40;1.00
3005;DHT22;1512;51.486;6.610;2023-09-18T17:55:05;19.40;1.00
3005;DHT22;1512;51.486;6.610;2023-09-18T17:59:15;19.50;1.00
3005;DHT22;1512;51.486;6.610;2023-09-18T18:03:24;19.50;1.00
3005;DHT22;1512;51.486;6.610;2023-09-18T18:07:33;19.60;1.00
3005;DHT22;1512;51.486;6.610;2023-09-18T18:11:42;19.50;1.00
3005;DHT22;1512;51.486;6.610;2023-09-18T18:15:51;19.50;1.00
3005;DHT22;1512;51.486;6.610;2023-09-18T18:20:00;19.40;1.00
3005;DHT22;1512;51.486;6.610;2023-09-18T18:24:13;19.30;1.00
3005;DHT22;1512;51.486;6.610;2023-09-18T18:28:23;19.20;1.00
3005;DHT22;1512;51.486;6.610;2023-09-18T18:32:31;19.20;99.90
3005;DHT22;1512;51.486;6.610;2023-09-18T18:36:40;19.10;99.90
3005;DHT22;1512;51.486;6.610;2023-09-18T18:40:56;19.10;99.90
3005;DHT22;1512;51.486;6.610;2023-09-18T18:45:05;19.10;99.90
3005;DHT22;1512;51.486;6.610;2023-09-18T18:49:15;19.10;99.90
3005;DHT22;1512;51.486;6.610;2023-09-18T18:53:23;19.00;99.90
3005;DHT22;1512;51.486;6.610;2023-09-18T18:57:33;19.00;1.00
3005;DHT22;1512;51.486;6.610;2023-09-18T19:01:41;19.00;1.00
3005;DHT22;1512;51.486;6.610;2023-09-18T19:05:50;18.90;99.90
3005;DHT22;1512;51.486;6.610;2023-09-18T19:09:59;18.80;1.00
3005;DHT22;1512;51.486;6.610;2023-09-18T19:14:07;18.80;1.00
3005;DHT22;1512;51.486;6.610;2023-09-18T19:18:16;18.80;99.90
3005;DHT22;1512;51.486;6.610;2023-09-18T19:22:25;18.70;1.00
3005;DHT22;1512;51.486;6.610;2023-09-18T19:26:33;18.70;1.00
3005;DHT22;1512;51.486;6.610;2023-09-18T19:30:43;18.70;99.90
3005;DHT22;1512;51.486;6.610;2023-09-18T19:34:53;18.60;99.90
3005;DHT22;1512;51.486;6.610;2023-09-18T19:39:02;18.50;99.90
3005;DHT22;1512;51.486;6.610;2023-09-18T19:43:12;18.50;99.90
3005;DHT22;1512;51.486;6.610;2023-09-18T19:47:21;18.40;99.90
3005;DHT22;1512;51.486;6.610;2023-09-18T19:51:30;18.30;99.90
3005;DHT22;1512;51.486;6.610;2023-09-18T19:55:40;18.30;99.90
3005;DHT22;1512;51.486;6.610;2023-09-18T19:59:49;18.30;99.90
3005;DHT22;1512;51.486;6.610;2023-09-18T20:03:59;18.30;99.90
3005;DHT22;1512;51.486;6.610;2023-09-18T20:08:08;18.30;99.90
3005;DHT22;1512;51.486;6.610;2023-09-18T20:12:17;18.30;99.90
3005;DHT22;1512;51.486;6.610;2023-09-18T20:16:26;18.20;99.90
3005;DHT22;1512;51.486;6.610;2023-09-18T20:20:35;18.20;99.90
3005;DHT22;1512;51.486;6.610;2023-09-18T20:24:44;18.20;99.90
3005;DHT22;1512;51.486;6.610;2023-09-18T20:28:53;18.20;99.90
3005;DHT22;1512;51.486;6.610;2023-09-18T20:33:01;18.20;99.90
3005;DHT22;1512;51.486;6.610;2023-09-18T20:37:11;18.10;99.90
3005;DHT22;1512;51.486;6.610;2023-09-18T20:41:20;18.10;99.90
3005;DHT22;1512;51.486;6.610;2023-09-18T20:45:29;18.10;99.90
3005;DHT22;1512;51.486;6.610;2023-09-18T20:49:38;18.10;99.90
3005;DHT22;1512;51.486;6.610;2023-09-18T20:53:47;18.10;99.90
3005;DHT22;1512;51.486;6.610;2023-09-18T20:57:55;18.10;99.90
3005;DHT22;1512;51.486;6.610;2023-09-18T21:02:04;18.10;99.90
3005;DHT22;1512;51.486;6.610;2023-09-18T21:06:15;18.00;99.90
3005;DHT22;1512;51.486;6.610;2023-09-18T21:10:23;18.00;93.50
3005;DHT22;1512;51.486;6.610;2023-09-18T21:14:34;18.00;97.50
3005;DHT22;1512;51.486;6.610;2023-09-18T21:18:43;18.00;45.50
3005;DHT22;1512;51.486;6.610;2023-09-18T21:22:52;18.00;1.00
3005;DHT22;1512;51.486;6.610;2023-09-18T21:31:22;18.00;54.30
3005;DHT22;1512;51.486;6.610;2023-09-18T21:35:31;17.90;99.90
3005;DHT22;1512;51.486;6.610;2023-09-18T21:39:39;17.90;57.00
3005;DHT22;1512;51.486;6.610;2023-09-18T21:43:48;17.80;1.00
3005;DHT22;1512;51.486;6.610;2023-09-18T21:47:57;17.80;1.00
3005;DHT22;1512;51.486;6.610;2023-09-18T21:52:06;17.80;1.00
3005;DHT22;1512;51.486;6.610;2023-09-18T21:56:15;17.80;1.00
3005;DHT22;1512;51.486;6.610;2023-09-18T22:00:24;17.80;1.00
3005;DHT22;1512;51.486;6.610;2023-09-18T22:04:36;17.70;1.00
3005;DHT22;1512;51.486;6.610;2023-09-18T22:08:44;17.70;1.00
3005;DHT22;1512;51.486;6.610;2023-09-18T22:12:53;17.70;1.00
3005;DHT22;1512;51.486;6.610;2023-09-18T22:17:02;17.80;1.00
3005;DHT22;1512;51.486;6.610;2023-09-18T22:21:11;17.70;1.00
3005;DHT22;1512;51.486;6.610;2023-09-18T22:25:20;17.70;1.00
3005;DHT22;1512;51.486;6.610;2023-09-18T22:29:28;17.70;1.00
3005;DHT22;1512;51.486;6.610;2023-09-18T22:33:37;17.60;1.00
3005;DHT22;1512;51.486;6.610;2023-09-18T22:37:56;17.50;1.00
3005;DHT22;1512;51.486;6.610;2023-09-18T22:55:38;17.40;1.00
3005;DHT22;1512;51.486;6.610;2023-09-18T22:59:49;17.30;1.00
3005;DHT22;1512;51.486;6.610;2023-09-18T23:03:58;17.30;1.00
3005;DHT22;1512;51.486;6.610;2023-09-18T23:08:08;17.20;1.00
3005;DHT22;1512;51.486;6.610;2023-09-18T23:12:17;17.30;1.00
3005;DHT22;1512;51.486;6.610;2023-09-18T23:16:27;17.20;1.00
3005;DHT22;1512;51.486;6.610;2023-09-18T23:20:37;17.20;1.00
3005;DHT22;1512;51.486;6.610;2023-09-18T23:24:47;17.20;1.00
3005;DHT22;1512;51.486;6.610;2023-09-18T23:28:56;17.20;1.00
3005;DHT22;1512;51.486;6.610;2023-09-18T23:33:06;17.10;1.00
3005;DHT22;1512;51.486;6.610;2023-09-18T23:37:16;17.10;1.00
3005;DHT22;1512;51.486;6.610;2023-09-18T23:41:25;17.00;1.00
3005;DHT22;1512;51.486;6.610;2023-09-18T23:45:38;17.00;1.00
3005;DHT22;1512;51.486;6.610;2023-09-18T23:49:48;16.90;1.00
3005;DHT22;1512;51.486;6.610;2023-09-18T23:53:57;16.90;1.00
3005;DHT22;1512;51.486;6.610;2023-09-18T23:58:06;16.90;1.00
